Time;durP1;ratioP1;P1;durP2;ratioP2;P2;SDS_P1;SDS_P2;PMS_P1;PMS_P2;Temp;Humidity;BMP_temperature;BMP_pressure;BME280_temperature;BME280_humidity;BME280_pressure;Samples;Min_cycle;Max_cycle;Signal;HPM_P1;HPM_P2
2022/09/16 00:00:42;;;;;;;13.68;6.38;;;10.40;99.90;;;;;;8284433;28;20067;-82
2022/09/16 00:04:42;;;;;;;13.82;5.93;;;10.40;99.90;;;;;;8283864;28;20048;-82
2022/09/16 00:08:44;;;;;;;10.98;5.95;;;10.30;99.90;;;;;;8284354;28;20018;-83
2022/09/16 00:12:44;;;;;;;11.45;7.28;;;10.30;99.90;;;;;;8287768;28;20030;-83
2022/09/16 00:16:45;;;;;;;16.10;8.50;;;10.30;99.90;;;;;;8286979;28;20036;-82
2022/09/16 00:20:49;;;;;;;16.88;8.63;;;10.40;99.90;;;;;;8282562;28;20036;-83
2022/09/16 00:24:50;;;;;;;13.98;8.05;;;10.40;99.90;;;;;;8299920;28;20062;-82
2022/09/16 00:28:51;;;;;;;13.05;8.25;;;10.40;99.90;;;;;;8282648;28;20033;-83
2022/09/16 00:32:51;;;;;;;10.25;7.25;;;10.40;99.90;;;;;;8283404;28;21294;-82
2022/09/16 00:36:52;;;;;;;11.45;7.63;;;10.60;99.90;;;;;;8283808;28;20030;-82
2022/09/16 00:40:52;;;;;;;12.77;8.27;;;10.60;99.90;;;;;;8283857;28;20029;-82
2022/09/16 00:45:05;;;;;;;14.10;8.88;;;10.60;99.90;;;;;;8282974;28;20572;-82
2022/09/16 00:49:22;;;;;;;19.13;9.25;;;10.70;99.90;;;;;;8299242;28;20029;-83
2022/09/16 00:53:30;;;;;;;12.75;7.70;;;10.90;99.90;;;;;;8282057;28;20018;-83
2022/09/16 00:57:31;;;;;;;9.15;6.60;;;11.00;99.90;;;;;;8282121;28;20061;-82
2022/09/16 01:01:32;;;;;;;9.43;6.60;;;11.00;99.90;;;;;;8299551;28;20068;-82
2022/09/16 01:05:33;;;;;;;10.90;5.53;;;10.80;99.90;;;;;;8282076;28;20030;-82
2022/09/16 01:09:33;;;;;;;8.85;5.72;;;10.80;99.90;;;;;;8287249;28;20026;-82
2022/09/16 01:13:35;;;;;;;11.38;6.07;;;10.80;99.90;;;;;;8290101;28;20494;-83
2022/09/16 01:17:52;;;;;;;11.93;6.10;;;10.70;99.90;;;;;;8299359;28;20044;-82
2022/09/16 01:22:19;;;;;;;10.45;5.85;;;10.60;99.90;;;;;;8286415;28;20121;-82
2022/09/16 01:26:26;;;;;;;7.20;5.07;;;10.60;99.90;;;;;;8297890;28;20069;-84
2022/09/16 01:30:49;;;;;;;10.65;6.05;;;10.60;99.90;;;;;;8298170;28;20064;-84
2022/09/16 01:35:01;;;;;;;10.23;6.57;;;10.30;99.90;;;;;;8295888;28;20030;-84
2022/09/16 01:39:08;;;;;;;11.65;6.80;;;10.30;99.90;;;;;;8298762;28;20009;-85
2022/09/16 01:43:26;;;;;;;12.45;7.32;;;10.20;99.90;;;;;;8296986;28;20383;-84
2022/09/16 01:47:37;;;;;;;12.13;7.32;;;10.20;99.90;;;;;;8296850;28;20014;-85
2022/09/16 01:51:42;;;;;;;;;;;10.30;99.90;;;;;;8297983;28;20022;-84
2022/09/16 01:55:54;;;;;;;11.93;7.10;;;10.20;99.90;;;;;;8296013;28;19906;-84
2022/09/16 02:00:06;;;;;;;15.55;8.00;;;10.20;99.90;;;;;;8278565;28;20026;-84
2022/09/16 02:04:30;;;;;;;15.60;8.73;;;10.10;99.90;;;;;;8293492;28;20030;-84
2022/09/16 02:08:57;;;;;;;18.52;9.52;;;10.30;99.90;;;;;;8295235;28;20026;-84
2022/09/16 02:13:04;;;;;;;19.10;10.40;;;10.30;99.90;;;;;;8295582;28;20509;-84
2022/09/16 02:17:09;;;;;;;22.35;10.77;;;10.20;99.90;;;;;;8279091;28;20509;-84
2022/09/16 02:21:14;;;;;;;26.25;10.73;;;10.20;99.90;;;;;;8297234;28;20029;-84
2022/09/16 02:25:17;;;;;;;24.50;11.80;;;10.10;99.90;;;;;;8297433;28;20087;-85
2022/09/16 02:29:24;;;;;;;18.48;11.50;;;10.10;99.90;;;;;;8280425;28;20087;-84
2022/09/16 02:33:32;;;;;;;19.73;10.63;;;10.00;99.90;;;;;;8291525;28;20018;-84
2022/09/16 02:37:48;;;;;;;25.15;11.02;;;10.00;99.90;;;;;;8306550;28;20038;-84
2022/09/16 02:41:48;;;;;;;20.70;10.93;;;10.10;99.90;;;;;;8296547;28;20048;-84
2022/09/16 02:46:17;;;;;;;19.95;10.02;;;10.20;99.90;;;;;;8296141;28;20018;-85
2022/09/16 02:50:31;;;;;;;18.80;9.43;;;10.20;99.90;;;;;;8277921;28;20029;-85
2022/09/16 02:54:56;;;;;;;20.38;10.60;;;10.30;99.90;;;;;;8279048;28;20026;-84
2022/09/16 02:58:57;;;;;;;26.65;10.73;;;10.40;99.90;;;;;;8279086;28;20045;-85
2022/09/16 03:02:57;;;;;;;19.63;9.25;;;10.60;99.90;;;;;;8279051;28;20478;-84
2022/09/16 03:06:58;;;;;;;15.55;9.77;;;10.80;99.90;;;;;;8282162;28;20493;-84
2022/09/16 03:11:25;;;;;;;19.35;10.07;;;10.70;99.90;;;;;;9153332;22;20042;-94
2022/09/16 03:15:29;;;;;;;17.17;10.45;;;10.60;99.90;;;;;;8276864;28;20060;-92
2022/09/16 03:20:02;;;;;;;19.00;10.70;;;10.40;99.90;;;;;;8307588;28;20465;-94
2022/09/16 03:28:26;;;;;;;22.60;11.35;;;10.50;99.90;;;;;;8346217;28;20065;-83
2022/09/16 03:32:31;;;;;;;19.60;11.02;;;10.60;99.90;;;;;;8316425;28;20110;-85
2022/09/16 03:36:38;;;;;;;24.15;11.50;;;10.70;99.90;;;;;;8314719;28;20405;-83
2022/09/16 03:40:41;;;;;;;19.42;10.70;;;10.70;99.90;;;;;;8312221;28;20026;-84
2022/09/16 03:44:41;;;;;;;26.33;12.23;;;10.70;99.90;;;;;;8308173;28;20034;-84
2022/09/16 03:48:42;;;;;;;21.75;11.02;;;10.80;99.90;;;;;;8297669;28;20081;-85
2022/09/16 03:52:43;;;;;;;20.60;11.98;;;11.00;99.90;;;;;;8311848;28;20022;-84
2022/09/16 03:56:43;;;;;;;23.58;11.93;;;10.90;99.90;;;;;;8318312;28;20026;-84
2022/09/16 04:00:49;;;;;;;21.17;10.80;;;11.00;99.90;;;;;;8313420;28;20043;-84
2022/09/16 04:04:50;;;;;;;17.55;10.95;;;11.00;99.90;;;;;;8293509;28;20050;-82
2022/09/16 04:08:52;;;;;;;17.35;9.63;;;11.00;99.90;;;;;;8318190;28;20037;-83
2022/09/16 04:12:57;;;;;;;21.83;11.48;;;11.00;99.90;;;;;;8291228;28;20087;-82
2022/09/16 04:16:57;;;;;;;23.13;12.05;;;11.00;99.90;;;;;;8310366;28;20076;-84
2022/09/16 04:20:59;;;;;;;23.65;11.95;;;11.00;99.90;;;;;;8318451;28;20022;-82
2022/09/16 04:24:59;;;;;;;23.23;11.77;;;11.10;99.90;;;;;;8303371;28;20034;-83
2022/09/16 04:29:00;;;;;;;20.80;11.95;;;11.60;99.90;;;;;;8304509;28;20509;-83
2022/09/16 04:33:00;;;;;;;20.20;13.02;;;11.60;99.90;;;;;;8296401;28;20033;-84
2022/09/16 04:37:01;;;;;;;24.52;14.02;;;11.60;99.90;;;;;;8314640;28;20367;-83
2022/09/16 04:41:15;;;;;;;27.90;14.35;;;11.50;99.90;;;;;;8315604;28;20112;-83
2022/09/16 04:45:16;;;;;;;30.52;14.95;;;11.50;99.90;;;;;;8292905;28;20639;-83
2022/09/16 04:49:16;;;;;;;32.83;15.70;;;11.50;99.90;;;;;;8290676;28;20052;-83
2022/09/16 04:53:18;;;;;;;23.85;14.02;;;11.60;99.90;;;;;;8316225;28;20113;-82
2022/09/16 04:57:18;;;;;;;26.42;14.07;;;11.70;99.90;;;;;;8302484;28;20033;-83
2022/09/16 05:01:25;;;;;;;27.08;11.77;;;11.90;99.90;;;;;;8300872;28;20513;-83
2022/09/16 05:05:25;;;;;;;19.08;10.80;;;11.90;99.90;;;;;;8304621;28;20030;-83
2022/09/16 05:09:26;;;;;;;18.45;10.73;;;11.80;99.90;;;;;;8311124;28;20018;-83
2022/09/16 05:13:26;;;;;;;18.85;10.40;;;11.70;99.90;;;;;;8300599;28;20022;-84
2022/09/16 05:17:29;;;;;;;19.20;11.43;;;11.80;99.90;;;;;;8310406;28;20033;-83
2022/09/16 05:21:33;;;;;;;19.75;10.60;;;11.90;99.90;;;;;;8295831;28;20355;-84
2022/09/16 05:25:33;;;;;;;17.70;10.60;;;11.80;99.90;;;;;;8294394;28;20471;-84
2022/09/16 05:29:34;;;;;;;15.38;10.43;;;11.70;99.90;;;;;;8295646;28;20022;-84
2022/09/16 05:33:35;;;;;;;15.65;9.95;;;11.70;99.90;;;;;;8310286;28;20485;-82
2022/09/16 05:37:35;;;;;;;25.33;10.25;;;11.80;99.90;;;;;;8315323;28;20036;-83
2022/09/16 05:41:36;;;;;;;22.75;9.70;;;11.90;99.90;;;;;;8310717;28;20033;-83
2022/09/16 05:45:37;;;;;;;22.13;12.40;;;11.80;99.90;;;;;;8307067;28;20026;-83
2022/09/16 05:49:37;;;;;;;19.38;11.85;;;11.80;99.90;;;;;;8308645;28;20022;-84
2022/09/16 05:53:38;;;;;;;18.58;11.40;;;11.80;99.90;;;;;;8307940;28;20658;-83
2022/09/16 05:57:39;;;;;;;21.70;12.95;;;12.00;99.90;;;;;;8290853;28;20555;-84
2022/09/16 06:01:39;;;;;;;20.02;13.38;;;12.10;99.90;;;;;;8289089;28;20463;-83
2022/09/16 06:05:40;;;;;;;34.10;18.55;;;12.10;99.90;;;;;;8285588;28;20263;-84
2022/09/16 06:09:40;;;;;;;75.35;36.75;;;12.30;99.90;;;;;;8287796;28;20022;-84
2022/09/16 06:13:41;;;;;;;81.93;42.97;;;12.50;99.90;;;;;;8297113;28;20052;-82
2022/09/16 06:17:41;;;;;;;64.20;33.88;;;12.50;99.90;;;;;;8297686;28;20032;-82
2022/09/16 06:21:43;;;;;;;46.70;26.73;;;12.60;99.90;;;;;;8308124;28;20025;-84
2022/09/16 06:25:44;;;;;;;52.38;27.73;;;12.60;99.90;;;;;;8306576;28;20025;-85
2022/09/16 06:29:45;;;;;;;34.83;21.13;;;12.70;99.90;;;;;;8299786;28;20018;-84
2022/09/16 06:33:46;;;;;;;32.25;21.15;;;12.90;99.90;;;;;;8308293;28;20057;-85
2022/09/16 06:37:47;;;;;;;30.70;19.45;;;13.10;99.90;;;;;;8311556;28;20494;-84
2022/09/16 06:41:47;;;;;;;22.63;15.27;;;13.20;99.90;;;;;;8303893;28;20109;-83
2022/09/16 06:45:48;;;;;;;21.50;14.88;;;13.50;99.90;;;;;;8300743;28;20025;-85
2022/09/16 06:49:49;;;;;;;22.20;13.55;;;13.60;99.90;;;;;;8307052;28;20022;-84
2022/09/16 06:53:51;;;;;;;18.17;12.00;;;13.80;99.90;;;;;;8314006;28;20046;-84
2022/09/16 06:57:51;;;;;;;18.27;11.75;;;13.80;99.90;;;;;;8296730;28;20128;-84
2022/09/16 07:01:52;;;;;;;15.43;10.75;;;13.90;99.90;;;;;;8314646;28;20048;-83
2022/09/16 07:06:03;;;;;;;15.50;10.65;;;14.10;99.90;;;;;;8310196;28;20029;-84
2022/09/16 07:10:06;;;;;;;15.55;10.48;;;14.20;99.90;;;;;;8293496;28;20056;-84
2022/09/16 07:14:08;;;;;;;15.23;10.30;;;14.30;99.90;;;;;;8310476;28;20034;-85
2022/09/16 07:18:08;;;;;;;12.45;9.30;;;14.40;99.90;;;;;;8305088;28;20486;-84
2022/09/16 07:22:10;;;;;;;13.15;9.73;;;14.60;99.90;;;;;;8306267;28;20018;-85
2022/09/16 07:26:16;;;;;;;10.65;8.30;;;14.80;99.90;;;;;;8304795;28;20577;-85
2022/09/16 07:30:17;;;;;;;16.23;8.88;;;14.90;99.90;;;;;;8286453;28;20113;-85
2022/09/16 07:34:18;;;;;;;10.60;8.02;;;14.90;99.90;;;;;;8289006;28;20206;-85
2022/09/16 07:38:19;;;;;;;11.93;8.23;;;14.90;99.90;;;;;;8304491;28;20030;-84
2022/09/16 07:42:19;;;;;;;13.45;9.00;;;14.90;99.90;;;;;;8281915;28;20414;-85
2022/09/16 07:46:20;;;;;;;10.82;7.80;;;14.90;99.90;;;;;;8293042;28;20021;-85
2022/09/16 07:50:21;;;;;;;12.75;8.73;;;14.80;99.90;;;;;;8307887;28;20042;-85
2022/09/16 07:54:21;;;;;;;14.20;8.32;;;14.80;99.90;;;;;;8291761;28;20049;-84
2022/09/16 07:58:22;;;;;;;10.48;8.32;;;14.90;99.90;;;;;;8296217;28;20117;-84
2022/09/16 08:02:22;;;;;;;11.05;8.38;;;14.90;99.90;;;;;;8297033;28;20026;-84
2022/09/16 08:06:25;;;;;;;13.70;9.90;;;14.60;99.90;;;;;;8288784;28;20516;-83
2022/09/16 08:10:26;;;;;;;13.73;9.40;;;14.50;99.90;;;;;;8294099;28;20113;-84
2022/09/16 08:14:27;;;;;;;12.80;9.68;;;14.30;99.90;;;;;;8315568;28;20030;-84
2022/09/16 08:18:28;;;;;;;13.25;9.13;;;14.20;99.90;;;;;;8291204;28;20441;-83
2022/09/16 08:22:28;;;;;;;13.68;8.80;;;14.20;99.90;;;;;;8300017;28;20029;-83
2022/09/16 08:26:29;;;;;;;14.45;9.35;;;14.20;99.90;;;;;;8294015;28;20025;-83
2022/09/16 08:30:30;;;;;;;9.82;8.18;;;14.20;99.90;;;;;;8307963;28;20018;-84
2022/09/16 08:34:31;;;;;;;10.77;7.85;;;14.40;99.90;;;;;;8294387;28;20028;-82
2022/09/16 08:38:32;;;;;;;13.50;8.77;;;14.40;99.90;;;;;;8303023;28;20026;-83
2022/09/16 08:43:02;;;;;;;12.07;8.05;;;14.40;99.90;;;;;;8294916;28;20030;-85
2022/09/16 08:47:33;;;;;;;11.70;8.35;;;14.50;99.90;;;;;;8310959;28;20037;-85
2022/09/16 08:51:33;;;;;;;13.53;8.63;;;14.80;99.90;;;;;;8298920;28;20018;-83
2022/09/16 08:55:38;;;;;;;11.65;8.65;;;15.10;99.90;;;;;;8304173;28;20601;-83
2022/09/16 08:59:45;;;;;;;13.68;9.13;;;15.00;99.90;;;;;;8304360;28;20076;-84
2022/09/16 09:03:47;;;;;;;12.88;10.15;;;15.00;99.90;;;;;;8292788;28;20022;-82
2022/09/16 09:07:55;;;;;;;13.35;9.50;;;14.80;99.90;;;;;;8309246;28;20494;-83
2022/09/16 09:12:27;;;;;;;14.05;9.93;;;14.70;99.90;;;;;;8337265;22;20525;-83
2022/09/16 09:16:52;;;;;;;14.52;10.35;;;14.80;99.90;;;;;;8312375;28;20040;-84
2022/09/16 09:21:26;;;;;;;12.68;9.85;;;14.90;99.90;;;;;;8328622;28;20018;-84
2022/09/16 09:26:12;;;;;;;12.27;9.18;;;15.00;99.90;;;;;;8337732;28;20033;-83
2022/09/16 09:30:24;;;;;;;13.98;9.52;;;15.10;99.90;;;;;;8246162;28;20506;-84
2022/09/16 09:35:02;;;;;;;11.55;8.52;;;15.30;99.90;;;;;;8299310;28;20033;-84
2022/09/16 09:39:24;;;;;;;12.73;9.50;;;15.10;99.90;;;;;;8330179;28;20335;-83
2022/09/16 09:43:35;;;;;;;12.38;8.85;;;14.90;99.90;;;;;;8326567;28;20032;-83
2022/09/16 09:47:53;;;;;;;7.63;6.00;;;14.90;99.90;;;;;;8316592;28;20022;-83
2022/09/16 09:51:57;;;;;;;8.63;7.13;;;14.70;99.90;;;;;;8337397;28;20025;-83
2022/09/16 09:56:24;;;;;;;7.80;6.45;;;14.60;99.90;;;;;;8321975;28;20105;-83
2022/09/16 10:00:24;;;;;;;10.15;6.78;;;14.70;99.90;;;;;;8320435;28;20120;-83
2022/09/16 10:04:26;;;;;;;9.48;6.70;;;14.70;99.90;;;;;;8337568;28;20033;-83
2022/09/16 10:08:34;;;;;;;6.88;5.05;;;15.00;99.90;;;;;;8325964;28;20047;-83
2022/09/16 10:12:35;;;;;;;5.57;4.65;;;14.40;99.90;;;;;;8328226;28;20033;-83
2022/09/16 10:16:36;;;;;;;7.53;6.07;;;13.50;99.90;;;;;;8326553;28;20021;-82
2022/09/16 10:20:41;;;;;;;6.55;5.15;;;12.70;99.90;;;;;;8321325;28;20033;-83
2022/09/16 10:24:42;;;;;;;8.77;4.97;;;12.20;99.90;;;;;;8323409;28;20124;-83
2022/09/16 10:29:13;;;;;;;8.38;5.47;;;12.20;99.90;;;;;;8331902;28;20025;-83
2022/09/16 10:33:24;;;;;;;8.90;4.35;;;11.90;99.90;;;;;;8317250;28;20022;-83
2022/09/16 10:37:26;;;;;;;10.90;7.63;;;11.80;99.90;;;;;;8325158;28;20025;-83
2022/09/16 10:41:44;;;;;;;7.75;5.03;;;11.70;99.90;;;;;;8330893;28;20136;-82
2022/09/16 10:45:48;;;;;;;6.38;4.53;;;11.50;99.90;;;;;;8327983;28;20017;-82
2022/09/16 10:49:52;;;;;;;6.15;4.63;;;11.40;99.90;;;;;;8341708;28;20018;-83
2022/09/16 10:53:56;;;;;;;5.22;4.03;;;11.40;99.90;;;;;;8326361;28;20033;-84
2022/09/16 10:58:08;;;;;;;5.35;3.20;;;11.50;99.90;;;;;;8338728;28;20067;-82
2022/09/16 11:02:45;;;;;;;4.28;3.33;;;11.60;99.90;;;;;;8334476;28;20057;-82
2022/09/16 11:07:19;;;;;;;5.03;3.35;;;12.00;99.90;;;;;;8344153;28;20028;-84
2022/09/16 11:11:44;;;;;;;3.78;2.90;;;12.50;99.90;;;;;;8313915;28;20041;-81
2022/09/16 11:15:59;;;;;;;3.42;2.10;;;12.70;99.90;;;;;;8340003;28;20053;-84
2022/09/16 11:20:26;;;;;;;3.00;2.03;;;12.70;99.90;;;;;;8335730;28;20095;-83
2022/09/16 11:25:01;;;;;;;2.83;2.25;;;12.60;99.90;;;;;;8321810;28;20034;-83
2022/09/16 11:29:24;;;;;;;3.10;2.40;;;12.60;99.90;;;;;;8323472;28;20031;-82
2022/09/16 11:34:03;;;;;;;2.85;2.50;;;12.90;99.90;;;;;;8335317;28;20029;-84
2022/09/16 11:38:22;;;;;;;3.10;2.60;;;12.70;99.90;;;;;;8320924;28;20022;-83
2022/09/16 11:42:40;;;;;;;3.05;2.75;;;12.40;99.90;;;;;;8319698;28;20040;-82
2022/09/16 11:46:40;;;;;;;4.30;2.85;;;12.30;99.90;;;;;;8323257;28;20032;-81
2022/09/16 11:51:11;;;;;;;5.88;4.07;;;12.30;99.90;;;;;;8336478;28;20025;-84
2022/09/16 11:55:30;;;;;;;4.63;3.58;;;12.60;99.90;;;;;;8323020;28;20036;-84
2022/09/16 11:59:53;;;;;;;3.63;3.00;;;13.30;99.90;;;;;;8319794;28;20485;-83
2022/09/16 12:04:25;;;;;;;3.08;2.78;;;14.40;99.90;;;;;;8322240;28;20037;-83
2022/09/16 12:08:57;;;;;;;3.88;2.47;;;14.70;99.90;;;;;;8334056;28;20032;-85
2022/09/16 12:13:05;;;;;;;2.95;2.28;;;16.30;99.90;;;;;;8324695;28;20068;-85
2022/09/16 12:17:28;;;;;;;3.70;2.90;;;18.30;99.90;;;;;;8319629;28;20029;-84
2022/09/16 12:21:45;;;;;;;5.90;3.33;;;17.20;99.90;;;;;;8325170;28;20014;-84
2022/09/16 12:26:05;;;;;;;4.10;2.95;;;16.40;99.90;;;;;;8331788;28;20029;-84
2022/09/16 12:30:17;;;;;;;3.42;2.85;;;15.50;99.90;;;;;;8320893;28;20025;-84
2022/09/16 12:34:22;;;;;;;8.45;3.03;;;14.90;99.90;;;;;;8325806;28;20064;-84
2022/09/16 12:38:23;;;;;;;4.78;3.65;;;14.50;99.90;;;;;;8327120;28;20030;-84
2022/09/16 12:42:42;;;;;;;3.95;3.55;;;13.90;99.90;;;;;;8337469;28;20029;-84
2022/09/16 12:47:34;;;;;;;6.60;3.40;;;13.80;99.90;;;;;;8317908;28;20036;-84
2022/09/16 12:52:05;;;;;;;4.60;3.97;;;13.60;99.90;;;;;;8294012;28;20053;-83
2022/09/16 12:56:23;;;;;;;6.60;4.43;;;13.30;99.90;;;;;;8328174;28;20076;-83
2022/09/16 13:00:33;;;;;;;5.20;4.13;;;13.30;99.90;;;;;;8337649;28;20028;-82
2022/09/16 13:04:40;;;;;;;6.13;4.80;;;13.50;99.90;;;;;;8331272;28;20025;-82
2022/09/16 13:08:41;;;;;;;6.95;4.25;;;13.30;99.90;;;;;;8320755;28;20075;-83
2022/09/16 13:12:48;;;;;;;5.22;4.22;;;13.10;99.90;;;;;;8329076;28;20051;-84
2022/09/16 13:16:57;;;;;;;5.75;4.68;;;13.10;99.90;;;;;;8329324;28;20021;-84
2022/09/16 13:21:04;;;;;;;7.28;4.28;;;13.10;99.90;;;;;;8328838;28;20029;-83
2022/09/16 13:25:25;;;;;;;4.97;4.40;;;13.30;99.90;;;;;;8318892;28;20456;-84
2022/09/16 13:29:42;;;;;;;6.63;4.93;;;13.10;99.90;;;;;;8325600;28;20425;-84
2022/09/16 13:33:44;;;;;;;5.70;5.00;;;13.00;99.90;;;;;;8322052;28;20025;-84
2022/09/16 13:37:55;;;;;;;7.22;5.50;;;13.00;99.90;;;;;;8321214;28;20120;-84
2022/09/16 13:41:56;;;;;;;6.68;5.32;;;12.90;99.90;;;;;;8323098;28;20025;-84
2022/09/16 13:46:25;;;;;;;6.18;5.03;;;13.30;99.90;;;;;;8329216;28;20379;-84
2022/09/16 13:50:26;;;;;;;8.02;5.35;;;13.80;99.90;;;;;;8320594;28;20037;-84
2022/09/16 13:54:31;;;;;;;5.40;4.35;;;14.40;99.90;;;;;;8322120;28;20036;-84
2022/09/16 13:58:41;;;;;;;6.13;4.03;;;14.80;99.90;;;;;;8316133;28;20079;-85
2022/09/16 14:02:58;;;;;;;4.72;3.83;;;15.30;99.90;;;;;;8331734;28;20533;-85
2022/09/16 14:07:20;;;;;;;5.25;3.88;;;15.30;99.90;;;;;;8319449;28;20520;-85
2022/09/16 14:11:37;;;;;;;5.82;2.80;;;15.20;99.90;;;;;;8328128;28;20037;-85
2022/09/16 14:15:44;;;;;;;5.70;3.05;;;15.20;99.90;;;;;;8325559;28;20033;-84
2022/09/16 14:19:47;;;;;;;2.78;2.47;;;15.20;99.90;;;;;;8310980;28;20072;-86
2022/09/16 14:23:48;;;;;;;2.83;2.15;;;15.00;99.90;;;;;;8314528;28;20030;-85
2022/09/16 14:27:48;;;;;;;3.75;2.30;;;14.90;99.90;;;;;;8311723;28;20053;-84
2022/09/16 14:31:52;;;;;;;4.93;2.05;;;14.90;99.90;;;;;;8319640;28;20496;-85
2022/09/16 14:35:54;;;;;;;3.72;2.47;;;15.20;99.90;;;;;;8318245;28;20091;-85
2022/09/16 14:40:05;;;;;;;2.83;2.25;;;16.60;99.90;;;;;;8319334;28;20116;-85
2022/09/16 14:44:17;;;;;;;4.53;1.98;;;17.80;99.90;;;;;;8319836;28;20069;-84
2022/09/16 14:48:21;;;;;;;3.53;2.00;;;18.60;99.90;;;;;;8319430;28;20111;-85
2022/09/16 14:52:25;;;;;;;2.78;2.20;;;17.50;99.90;;;;;;8317632;28;20405;-85
2022/09/16 14:56:25;;;;;;;3.92;2.50;;;16.10;99.90;;;;;;8316599;28;20026;-85
2022/09/16 15:00:37;;;;;;;4.28;2.75;;;15.30;99.90;;;;;;8316601;28;20116;-85
2022/09/16 15:04:42;;;;;;;4.68;2.33;;;14.90;99.90;;;;;;8319749;28;20032;-85
2022/09/16 15:08:52;;;;;;;3.05;2.10;;;14.80;99.90;;;;;;8327546;28;20075;-85
2022/09/16 15:13:01;;;;;;;3.13;2.10;;;14.40;99.90;;;;;;8321930;22;20417;-92
2022/09/16 15:17:03;;;;;;;3.78;2.58;;;14.10;99.90;;;;;;8323212;28;20024;-92
2022/09/16 15:21:05;;;;;;;4.20;2.90;;;14.10;99.90;;;;;;8314765;28;20037;-93
2022/09/16 15:25:19;;;;;;;5.43;3.30;;;14.20;99.90;;;;;;8342697;23;20564;-83
2022/09/16 15:29:22;;;;;;;6.55;3.20;;;13.90;99.90;;;;;;8315234;28;20025;-83
2022/09/16 15:33:33;;;;;;;4.55;2.35;;;13.50;99.90;;;;;;8342101;28;20037;-83
2022/09/16 15:37:34;;;;;;;6.63;3.10;;;12.80;99.90;;;;;;8314810;28;20033;-84
2022/09/16 15:41:35;;;;;;;4.05;2.88;;;12.30;99.90;;;;;;8316793;28;20454;-83
2022/09/16 15:45:35;;;;;;;5.85;2.92;;;12.10;99.90;;;;;;8326928;28;20052;-82
2022/09/16 15:49:38;;;;;;;3.45;2.65;;;11.90;99.90;;;;;;8317596;28;20036;-85
2022/09/16 15:53:45;;;;;;;5.78;3.10;;;11.80;99.90;;;;;;8314846;28;20021;-84
2022/09/16 15:57:45;;;;;;;5.65;3.00;;;11.90;99.90;;;;;;8352343;28;20026;-84
2022/09/16 16:01:51;;;;;;;3.15;2.67;;;11.80;99.90;;;;;;8322663;28;20013;-84
2022/09/16 16:05:53;;;;;;;7.15;3.38;;;11.90;99.90;;;;;;8332114;28;20029;-84
2022/09/16 16:09:54;;;;;;;13.60;4.05;;;11.80;99.90;;;;;;8322461;28;20072;-84
2022/09/16 16:13:55;;;;;;;4.32;3.70;;;11.70;99.90;;;;;;8319483;28;20025;-82
2022/09/16 16:17:59;;;;;;;6.22;4.25;;;11.60;99.90;;;;;;8334121;28;20044;-83
2022/09/16 16:22:00;;;;;;;5.68;3.65;;;11.70;99.90;;;;;;8322608;28;20025;-83
2022/09/16 16:26:01;;;;;;;7.55;4.15;;;11.60;99.90;;;;;;8334379;28;20040;-84
2022/09/16 16:30:03;;;;;;;5.85;4.03;;;11.60;99.90;;;;;;8326489;28;20017;-83
2022/09/16 16:34:03;;;;;;;7.10;4.38;;;11.60;99.90;;;;;;8328749;28;20603;-83
2022/09/16 16:38:04;;;;;;;6.22;3.65;;;11.60;99.90;;;;;;8325025;28;20075;-83
2022/09/16 16:42:05;;;;;;;6.07;3.75;;;11.60;99.90;;;;;;8322343;28;20064;-83
2022/09/16 16:46:05;;;;;;;5.63;3.90;;;11.60;99.90;;;;;;8335090;28;20033;-83
2022/09/16 16:50:06;;;;;;;4.75;4.05;;;11.60;99.90;;;;;;8342822;28;20025;-83
2022/09/16 16:54:07;;;;;;;6.57;4.68;;;11.70;99.90;;;;;;8338097;28;20564;-82
2022/09/16 16:58:08;;;;;;;9.10;4.60;;;11.60;99.90;;;;;;8316878;28;20421;-82
2022/09/16 17:02:10;;;;;;;5.05;4.18;;;11.60;99.90;;;;;;8334498;28;20029;-83
2022/09/16 17:06:11;;;;;;;6.88;5.20;;;11.50;99.90;;;;;;8340474;28;20044;-83
2022/09/16 17:10:11;;;;;;;6.07;5.03;;;11.60;99.90;;;;;;8321892;28;20022;-83
2022/09/16 17:14:12;;;;;;;7.00;5.53;;;11.40;99.90;;;;;;8318326;28;20029;-82
2022/09/16 17:18:12;;;;;;;6.40;4.97;;;11.40;99.90;;;;;;8332085;28;20029;-83
2022/09/16 17:22:13;;;;;;;7.22;4.47;;;11.50;99.90;;;;;;8329272;28;20053;-84
2022/09/16 17:26:14;;;;;;;6.82;4.25;;;11.30;99.90;;;;;;8325146;28;20033;-83
2022/09/16 17:30:15;;;;;;;8.25;4.53;;;11.20;99.90;;;;;;8328956;28;20018;-82
2022/09/16 17:34:16;;;;;;;7.47;5.07;;;11.20;99.90;;;;;;8321859;28;20577;-82
2022/09/16 17:38:16;;;;;;;6.45;4.93;;;11.10;99.90;;;;;;8333507;28;20025;-83
2022/09/16 17:42:17;;;;;;;6.32;4.10;;;11.10;99.90;;;;;;8321685;28;20091;-83
2022/09/16 17:46:19;;;;;;;5.55;3.83;;;11.00;99.90;;;;;;8332811;28;20033;-82
2022/09/16 17:50:19;;;;;;;6.97;5.85;;;11.10;99.90;;;;;;8334330;28;20152;-83
2022/09/16 17:54:20;;;;;;;13.20;5.60;;;10.90;99.90;;;;;;8333979;28;20029;-81
2022/09/16 17:58:23;;;;;;;5.65;4.45;;;10.80;99.90;;;;;;8334085;28;20029;-82
2022/09/16 18:02:24;;;;;;;6.30;3.92;;;10.60;99.90;;;;;;8330367;28;20033;-81
2022/09/16 18:06:30;;;;;;;6.38;4.28;;;10.40;99.90;;;;;;8311050;28;20025;-82
2022/09/16 18:10:31;;;;;;;9.73;4.80;;;10.30;99.90;;;;;;8320172;28;20025;-82
2022/09/16 18:14:32;;;;;;;7.70;5.35;;;10.30;99.90;;;;;;8315557;28;20108;-81
2022/09/16 18:18:35;;;;;;;12.05;5.47;;;9.90;99.90;;;;;;8328882;28;20071;-82
2022/09/16 18:22:36;;;;;;;7.75;5.05;;;9.60;99.90;;;;;;8324661;28;20021;-81
2022/09/16 18:26:37;;;;;;;7.47;5.50;;;9.60;99.90;;;;;;8326682;28;20118;-81
2022/09/16 18:30:37;;;;;;;9.43;5.43;;;9.60;99.90;;;;;;8326413;28;20025;-81
2022/09/16 18:34:38;;;;;;;6.63;5.07;;;9.60;99.90;;;;;;8321779;28;20494;-81
2022/09/16 18:38:40;;;;;;;11.65;6.20;;;9.60;99.90;;;;;;8322033;28;20262;-82
2022/09/16 18:42:40;;;;;;;10.70;6.47;;;9.60;99.90;;;;;;8312127;28;20033;-82
2022/09/16 18:46:41;;;;;;;7.55;5.97;;;9.70;99.90;;;;;;8318877;28;20025;-81
2022/09/16 18:50:42;;;;;;;8.18;6.30;;;9.70;99.90;;;;;;8328511;28;20022;-82
2022/09/16 18:54:45;;;;;;;13.18;5.82;;;9.50;99.90;;;;;;8312012;28;20037;-83
2022/09/16 18:58:46;;;;;;;9.68;6.00;;;9.40;99.90;;;;;;8320348;28;20112;-82
2022/09/16 19:02:48;;;;;;;8.75;6.07;;;9.30;99.90;;;;;;8328155;28;20032;-82
2022/09/16 19:06:51;;;;;;;11.90;6.20;;;9.10;99.90;;;;;;8325535;28;20371;-82
2022/09/16 19:10:52;;;;;;;8.85;6.10;;;9.00;99.90;;;;;;8325058;28;20021;-81
2022/09/16 19:14:54;;;;;;;11.35;6.35;;;8.80;99.90;;;;;;8320146;28;20022;-82
2022/09/16 19:18:55;;;;;;;11.13;7.30;;;8.70;99.90;;;;;;8322400;28;20049;-81
2022/09/16 19:22:55;;;;;;;10.90;6.03;;;8.80;99.90;;;;;;8316125;28;20029;-82
2022/09/16 19:26:56;;;;;;;12.00;7.53;;;8.70;99.90;;;;;;8311504;28;20539;-82
2022/09/16 19:31:02;;;;;;;11.40;7.38;;;8.70;99.90;;;;;;8307857;28;20047;-81
2022/09/16 19:35:02;;;;;;;16.33;7.93;;;8.70;99.90;;;;;;8325936;28;20017;-82
2022/09/16 19:39:05;;;;;;;13.30;8.18;;;8.60;99.90;;;;;;8322794;28;20025;-81
2022/09/16 19:43:05;;;;;;;17.33;8.90;;;8.70;99.90;;;;;;8320309;28;20041;-81
2022/09/16 19:47:06;;;;;;;12.95;8.10;;;8.70;99.90;;;;;;8321143;28;20053;-81
2022/09/16 19:51:09;;;;;;;12.13;8.10;;;8.70;99.90;;;;;;8329265;28;20440;-82
2022/09/16 19:55:10;;;;;;;14.45;8.57;;;9.00;99.90;;;;;;8328924;28;20021;-81
2022/09/16 19:59:11;;;;;;;14.60;8.95;;;9.20;99.90;;;;;;8314725;28;20903;-81
2022/09/16 20:03:11;;;;;;;12.68;8.40;;;9.40;99.90;;;;;;8321752;28;20029;-81
2022/09/16 20:07:15;;;;;;;11.80;8.00;;;9.40;99.90;;;;;;8330992;28;20486;-81
2022/09/16 20:11:20;;;;;;;10.90;7.38;;;9.40;99.90;;;;;;8325910;28;20029;-82
2022/09/16 20:15:20;;;;;;;12.77;8.18;;;9.60;99.90;;;;;;8320818;28;20041;-82
2022/09/16 20:19:21;;;;;;;14.13;8.30;;;9.80;99.90;;;;;;8330053;28;20032;-81
2022/09/16 20:23:21;;;;;;;10.73;7.90;;;10.10;99.90;;;;;;8330800;28;20035;-82
2022/09/16 20:27:22;;;;;;;9.57;6.78;;;10.20;99.90;;;;;;8335142;28;20021;-81
2022/09/16 20:31:25;;;;;;;9.50;6.93;;;10.30;99.90;;;;;;8324984;28;21622;-82
2022/09/16 20:35:26;;;;;;;13.38;7.10;;;10.50;99.90;;;;;;8325228;28;20030;-82
2022/09/16 20:39:26;;;;;;;8.68;6.50;;;10.30;99.90;;;;;;8319076;28;20017;-82
2022/09/16 20:43:27;;;;;;;9.82;6.50;;;10.70;99.90;;;;;;8326746;28;20025;-82
2022/09/16 20:47:29;;;;;;;9.52;6.30;;;10.80;99.90;;;;;;8330384;28;20572;-81
2022/09/16 20:51:32;;;;;;;10.90;6.60;;;10.60;99.90;;;;;;8318369;28;20505;-81
2022/09/16 20:55:33;;;;;;;11.95;7.13;;;10.50;99.90;;;;;;8330559;28;20025;-83
2022/09/16 20:59:34;;;;;;;9.32;6.40;;;10.50;99.90;;;;;;8318732;28;20024;-82
2022/09/16 21:03:35;;;;;;;14.35;7.20;;;10.40;99.90;;;;;;8321740;28;20022;-81
2022/09/16 21:07:36;;;;;;;12.15;6.63;;;10.40;99.90;;;;;;8322198;28;20112;-82
2022/09/16 21:11:42;;;;;;;8.32;6.40;;;10.50;99.90;;;;;;8318407;28;20024;-82
2022/09/16 21:15:52;;;;;;;8.70;5.68;;;10.70;99.90;;;;;;8336541;28;20025;-83